createdAt,value
2018-08-25T00:01:43.071Z,17.07
2018-08-25T00:04:13.093Z,17.33
2018-08-25T00:06:43.165Z,16.53
2018-08-25T00:09:13.176Z,17.80
2018-08-25T00:11:43.122Z,16.17
2018-08-25T00:14:13.129Z,14.80
2018-08-25T00:16:43.145Z,17.67
2018-08-25T00:19:13.231Z,17.50
2018-08-25T00:21:43.264Z,15.03
2018-08-25T00:24:13.323Z,14.13
2018-08-25T00:26:43.461Z,15.40
2018-08-25T00:29:13.513Z,17.67
2018-08-25T00:31:43.609Z,19.43
2018-08-25T00:34:13.665Z,14.40
2018-08-25T00:36:43.746Z,17.23
2018-08-25T00:39:13.876Z,14.93
2018-08-25T00:41:43.815Z,16.93
2018-08-25T00:44:13.875Z,13.67
2018-08-25T00:46:43.963Z,14.43
2018-08-25T00:49:14.077Z,14.80
2018-08-25T00:51:44.060Z,15.10
2018-08-25T00:54:14.115Z,16.70
2018-08-25T00:56:44.142Z,13.17
2018-08-25T00:59:14.054Z,14.50
2018-08-25T01:01:44.011Z,15.37
2018-08-25T01:04:13.945Z,13.77
2018-08-25T01:06:43.986Z,12.37
2018-08-25T01:09:14.083Z,14.10
2018-08-25T01:11:44.026Z,11.73
2018-08-25T01:14:14.110Z,14.27
2018-08-25T01:16:44.171Z,13.90
2018-08-25T01:19:14.149Z,16.57
2018-08-25T01:21:44.009Z,12.63
2018-08-25T01:24:14.065Z,12.93
2018-08-25T01:26:44.091Z,14.50
2018-08-25T01:29:14.165Z,17.50
2018-08-25T01:31:44.265Z,16.73
2018-08-25T01:34:14.363Z,18.10
2018-08-25T01:36:44.412Z,16.00
2018-08-25T01:39:14.489Z,15.00
2018-08-25T01:41:44.548Z,13.93
2018-08-25T01:44:14.587Z,10.87
2018-08-25T01:46:44.652Z,15.03
2018-08-25T01:49:14.689Z,9.50
2018-08-25T01:51:44.793Z,14.07
2018-08-25T01:54:14.755Z,15.17
2018-08-25T01:56:44.465Z,16.53
2018-08-25T01:59:14.598Z,18.97
2018-08-25T02:01:44.688Z,12.13
2018-08-25T02:04:14.821Z,12.30
2018-08-25T02:06:44.940Z,14.17
2018-08-25T02:09:15.161Z,13.93
2018-08-25T02:11:45.329Z,13.07
2018-08-25T02:14:14.718Z,14.73
2018-08-25T02:16:44.846Z,13.10
2018-08-25T02:19:14.707Z,14.20
2018-08-25T02:21:44.796Z,12.23
2018-08-25T02:24:14.793Z,13.07
2018-08-25T02:26:44.825Z,16.23
2018-08-25T02:29:14.943Z,14.75
2018-08-25T02:31:44.958Z,17.30
2018-08-25T02:34:15.016Z,18.80
2018-08-25T02:36:45.066Z,14.10
2018-08-25T02:39:15.051Z,17.00
2018-08-25T02:41:45.219Z,16.00
2018-08-25T02:44:15.287Z,14.70
2018-08-25T02:46:45.383Z,16.77
2018-08-25T02:49:15.462Z,16.53
2018-08-25T02:51:45.476Z,14.23
2018-08-25T02:54:15.431Z,14.20
2018-08-25T02:56:45.588Z,13.10
2018-08-25T02:59:16.181Z,14.53
2018-08-25T03:01:45.959Z,13.77
2018-08-25T03:04:15.981Z,12.80
2018-08-25T03:06:46.072Z,11.83
2018-08-25T03:09:16.241Z,16.70
2018-08-25T03:11:46.303Z,17.63
2018-08-25T03:14:16.342Z,19.20
2018-08-25T03:16:46.352Z,18.60
2018-08-25T03:19:16.401Z,13.10
2018-08-25T03:21:46.510Z,17.57
2018-08-25T03:24:16.634Z,14.93
2018-08-25T03:26:46.698Z,13.50
2018-08-25T03:29:16.801Z,15.60
2018-08-25T03:31:46.782Z,11.90
2018-08-25T03:34:16.689Z,15.40
2018-08-25T03:36:46.752Z,16.10
2018-08-25T03:39:16.907Z,16.00
2018-08-25T03:41:47.017Z,13.07
2018-08-25T03:44:17.232Z,16.60
2018-08-25T03:46:47.385Z,16.47
2018-08-25T03:49:17.471Z,14.50
2018-08-25T03:51:47.534Z,16.87
2018-08-25T03:54:17.506Z,15.13
2018-08-25T03:56:47.574Z,12.50
2018-08-25T03:59:17.684Z,11.07
2018-08-25T04:01:47.701Z,13.67
2018-08-25T04:04:17.739Z,23.03
2018-08-25T04:06:47.756Z,16.60
2018-08-25T04:09:17.892Z,16.13
2018-08-25T04:11:47.957Z,15.33
2018-08-25T04:14:18.063Z,14.27
2018-08-25T04:16:48.114Z,13.50
2018-08-25T04:19:22.407Z,15.50
2018-08-25T04:21:52.705Z,13.03
2018-08-25T04:24:22.788Z,13.97
2018-08-25T04:26:52.823Z,16.07
2018-08-25T04:29:22.887Z,16.30
2018-08-25T04:31:52.911Z,15.87
2018-08-25T04:34:23.003Z,18.73
2018-08-25T04:36:54.170Z,14.73
2018-08-25T04:39:23.998Z,17.90
2018-08-25T04:41:54.053Z,14.83
2018-08-25T04:44:24.110Z,16.67
2018-08-25T04:46:54.155Z,14.17
2018-08-25T04:49:24.235Z,13.13
2018-08-25T04:51:54.419Z,14.33
2018-08-25T04:54:24.467Z,13.13
2018-08-25T04:56:54.498Z,15.90
2018-08-25T04:59:24.586Z,14.67
2018-08-25T05:01:54.775Z,11.63
2018-08-25T05:04:24.878Z,14.05
2018-08-25T05:06:55.913Z,15.90
2018-08-25T05:09:26.001Z,14.43
2018-08-25T05:11:56.098Z,14.13
2018-08-25T05:14:26.194Z,15.00
2018-08-25T05:16:56.256Z,13.93
2018-08-25T05:19:26.345Z,17.50
2018-08-25T05:21:56.405Z,14.67
2018-08-25T05:24:26.468Z,13.50
2018-08-25T05:26:56.422Z,16.00
2018-08-25T05:29:26.510Z,12.83
2018-08-25T05:31:56.474Z,17.13
2018-08-25T05:34:26.519Z,17.37
2018-08-25T05:36:56.541Z,11.57
2018-08-25T05:39:26.594Z,16.67
2018-08-25T05:41:58.149Z,12.57
2018-08-25T05:44:28.381Z,13.90
2018-08-25T05:46:57.410Z,14.20
2018-08-25T05:49:27.411Z,17.77
2018-08-25T05:51:57.301Z,17.25
2018-08-25T05:54:27.329Z,15.57
2018-08-25T05:56:57.594Z,14.85
2018-08-25T05:59:27.671Z,15.67
2018-08-25T06:01:57.915Z,15.45
2018-08-25T06:04:27.858Z,13.70
2018-08-25T06:06:57.976Z,15.10
2018-08-25T06:09:28.073Z,13.50
2018-08-25T06:11:58.189Z,15.58
2018-08-25T06:14:28.362Z,16.80
2018-08-25T06:16:58.502Z,11.30
2018-08-25T06:19:28.693Z,12.30
2018-08-25T06:21:58.709Z,12.25
2018-08-25T06:24:28.817Z,13.50
2018-08-25T06:26:58.908Z,13.03
2018-08-25T06:29:28.933Z,12.83
2018-08-25T06:31:58.981Z,14.40
2018-08-25T06:34:29.127Z,12.23
2018-08-25T06:36:59.128Z,12.50
2018-08-25T06:39:29.192Z,12.70
2018-08-25T06:41:59.259Z,14.13
2018-08-25T06:44:29.296Z,15.50
2018-08-25T06:46:59.522Z,10.98
2018-08-25T06:49:29.505Z,13.43
2018-08-25T06:51:59.698Z,15.10
2018-08-25T06:54:29.745Z,13.43
2018-08-25T06:56:59.754Z,16.63
2018-08-25T06:59:29.617Z,15.13
2018-08-25T07:01:59.662Z,14.55
2018-08-25T07:04:29.689Z,13.88
2018-08-25T07:06:59.705Z,11.43
2018-08-25T07:09:29.681Z,12.73
2018-08-25T07:11:59.804Z,12.17
2018-08-25T07:14:29.703Z,12.47
2018-08-25T07:16:59.723Z,10.65
2018-08-25T07:19:29.710Z,11.17
2018-08-25T07:21:59.791Z,11.93
2018-08-25T07:24:29.919Z,15.00
2018-08-25T07:26:59.947Z,12.23
2018-08-25T07:29:29.847Z,13.13
2018-08-25T07:31:59.930Z,11.73
2018-08-25T07:34:30.106Z,12.00
2018-08-25T07:37:00.101Z,11.43
2018-08-25T07:39:30.166Z,14.40
2018-08-25T07:42:00.245Z,9.93
2018-08-25T07:44:30.324Z,12.23
2018-08-25T07:47:00.463Z,10.65
2018-08-25T07:49:30.492Z,11.37
2018-08-25T07:52:00.545Z,14.57
2018-08-25T07:54:30.603Z,12.10
2018-08-25T07:57:00.864Z,10.68
2018-08-25T07:59:30.921Z,10.03
2018-08-25T08:02:01.088Z,11.07
2018-08-25T08:04:31.132Z,9.95
2018-08-25T08:07:01.185Z,11.50
2018-08-25T08:09:32.357Z,9.70
2018-08-25T08:12:02.239Z,10.80
2018-08-25T08:14:32.049Z,7.10
2018-08-25T08:17:02.532Z,8.87
2018-08-25T08:19:32.476Z,9.17
2018-08-25T08:22:02.634Z,8.97
2018-08-25T08:24:32.637Z,10.07
2018-08-25T08:27:02.713Z,11.80
2018-08-25T08:29:32.810Z,13.20
2018-08-25T08:32:02.925Z,8.73
2018-08-25T08:34:32.996Z,9.37
2018-08-25T08:37:03.094Z,11.93
2018-08-25T08:39:33.332Z,10.33
2018-08-25T08:42:03.324Z,10.78
2018-08-25T08:44:33.370Z,10.23
2018-08-25T08:47:03.495Z,8.10
2018-08-25T08:49:46.306Z,9.50
2018-08-25T08:52:03.721Z,11.27
2018-08-25T08:54:33.785Z,13.33
2018-08-25T08:57:03.877Z,12.13
2018-08-25T08:59:33.890Z,10.78
2018-08-25T09:02:04.468Z,16.23
2018-08-25T09:04:34.685Z,9.43
2018-08-25T09:07:04.708Z,11.57
2018-08-25T09:10:04.214Z,12.10
2018-08-25T09:12:33.531Z,8.60
2018-08-25T09:15:02.658Z,10.13
2018-08-25T09:56:15.513Z,9.13
2018-08-25T09:58:45.836Z,9.10
2018-08-25T10:01:21.439Z,12.33
2018-08-25T10:03:52.059Z,11.03
2018-08-25T10:06:24.438Z,13.60
2018-08-25T10:08:54.897Z,8.63
2018-08-25T10:11:25.346Z,11.63
2018-08-25T10:13:56.651Z,11.80
2018-08-25T10:16:27.366Z,11.83
2018-08-25T10:18:57.977Z,9.43
2018-08-25T10:21:30.081Z,11.33
2018-08-25T10:24:00.672Z,9.60
2018-08-25T10:26:31.090Z,14.87
2018-08-25T10:29:01.388Z,7.67
2018-08-25T10:31:31.576Z,11.87
2018-08-25T10:34:02.592Z,7.65
2018-08-25T10:36:32.762Z,10.03
2018-08-25T10:39:03.086Z,12.13
2018-08-25T10:41:33.639Z,10.18
2018-08-25T10:44:04.997Z,7.25
2018-08-25T10:46:35.718Z,9.08
2018-08-25T10:49:06.008Z,14.18
2018-08-25T10:51:39.592Z,10.40
2018-08-25T11:07:14.297Z,9.05
2018-08-25T11:09:45.514Z,7.87
2018-08-25T11:12:15.669Z,7.97
2018-08-25T11:14:46.677Z,7.47
2018-08-25T11:17:17.401Z,5.63
2018-08-25T11:19:48.597Z,6.73
2018-08-25T11:22:19.855Z,8.53
2018-08-25T11:24:52.221Z,8.57
2018-08-25T11:27:25.226Z,12.03
2018-08-25T11:29:57.426Z,8.40
2018-08-25T11:32:28.237Z,6.77
2018-08-25T11:35:00.216Z,8.03
2018-08-25T11:37:31.951Z,8.90
2018-08-25T11:40:04.522Z,7.78
2018-08-25T11:42:35.317Z,6.20
2018-08-25T11:45:06.787Z,11.97
2018-08-25T11:47:38.655Z,14.27
2018-08-25T11:50:09.358Z,7.12
2018-08-25T11:52:41.108Z,9.47
2018-08-25T11:55:11.424Z,8.45
2018-08-25T11:57:42.435Z,7.00
2018-08-25T12:00:12.966Z,8.30
2018-08-25T12:02:43.336Z,12.77
2018-08-25T12:05:13.968Z,8.03
2018-08-25T12:07:44.142Z,8.43
2018-08-25T12:10:14.711Z,7.10
2018-08-25T12:12:45.104Z,11.50
2018-08-25T12:15:15.682Z,8.67
2018-08-25T12:17:47.183Z,10.37
2018-08-25T12:20:18.403Z,10.03
2018-08-25T12:22:49.906Z,6.87
2018-08-25T12:25:20.580Z,7.63
2018-08-25T12:27:51.806Z,6.07
2018-08-25T12:30:22.200Z,9.33
2018-08-25T12:32:52.685Z,10.33
2018-08-25T12:35:23.050Z,4.87
2018-08-25T12:37:55.324Z,7.83
2018-08-25T12:40:25.791Z,6.17
2018-08-25T12:42:56.589Z,8.73
2018-08-25T12:45:26.637Z,6.33
2018-08-25T12:47:58.377Z,6.13
2018-08-25T12:50:28.510Z,8.00
2018-08-25T12:52:58.220Z,9.87
2018-08-25T12:55:29.212Z,8.80
2018-08-25T12:58:00.539Z,7.87
2018-08-25T13:00:30.736Z,8.90
2018-08-25T13:03:01.028Z,6.13
2018-08-25T13:05:31.095Z,11.15
2018-08-25T13:08:01.572Z,9.53
2018-08-25T13:10:31.795Z,10.60
2018-08-25T13:13:02.423Z,13.10
2018-08-25T13:15:32.936Z,7.37
2018-08-25T13:18:03.849Z,6.80
2018-08-25T13:20:35.190Z,7.67
2018-08-25T13:23:05.686Z,8.10
2018-08-25T13:25:36.724Z,7.77
2018-08-25T13:28:07.281Z,9.65
2018-08-25T13:30:39.695Z,5.47
2018-08-25T13:33:11.258Z,8.03
2018-08-25T13:35:41.696Z,7.58
2018-08-25T13:38:12.049Z,6.10
2018-08-25T13:40:42.271Z,7.80
2018-08-25T13:43:12.439Z,7.62
2018-08-25T13:45:42.667Z,6.07
2018-08-25T13:48:14.665Z,8.00
2018-08-25T13:50:45.047Z,8.43
2018-08-25T13:53:16.082Z,6.87
2018-08-25T13:55:46.811Z,4.60
2018-08-25T13:58:18.302Z,6.07
2018-08-25T14:00:49.696Z,5.60
2018-08-25T14:03:20.747Z,6.30
2018-08-25T14:05:51.150Z,8.93
2018-08-25T14:08:23.470Z,5.93
2018-08-25T14:10:54.052Z,7.37
2018-08-25T14:13:25.902Z,5.00
2018-08-25T14:15:58.149Z,4.28
2018-08-25T14:18:29.573Z,4.37
2018-08-25T14:21:00.718Z,4.90
2018-08-25T14:23:32.630Z,4.10
2018-08-25T14:26:03.165Z,4.30
2018-08-25T14:28:33.898Z,5.83
2018-08-25T14:31:05.758Z,5.50
2018-08-25T14:33:36.563Z,3.93
2018-08-25T14:36:08.181Z,4.65
2018-08-25T14:38:38.851Z,6.00
2018-08-25T14:41:09.030Z,4.90
2018-08-25T14:43:38.452Z,7.23
2018-08-25T14:46:08.041Z,6.83
2018-08-25T14:48:39.980Z,7.23
2018-08-25T14:51:10.358Z,5.00
2018-08-25T14:53:40.737Z,5.90
2018-08-25T14:56:12.086Z,5.07
2018-08-25T14:58:44.161Z,8.07
2018-08-25T15:01:21.550Z,3.93
2018-08-25T15:03:51.939Z,8.43
2018-08-25T15:06:24.335Z,6.40
2018-08-25T15:08:55.281Z,6.65
2018-08-25T15:13:56.336Z,7.23
2018-08-25T15:16:29.899Z,4.80
2018-08-25T15:19:01.302Z,6.60
2018-08-25T15:21:31.609Z,7.65
2018-08-25T15:24:02.601Z,5.50
2018-08-25T15:26:31.841Z,5.70
2018-08-25T15:29:01.076Z,5.60
2018-08-25T15:31:32.247Z,6.80
2018-08-25T15:34:01.491Z,7.47
2018-08-25T15:36:31.099Z,8.63
2018-08-25T15:39:00.357Z,6.80
2018-08-25T15:41:30.013Z,6.70
2018-08-25T15:43:59.219Z,9.48
2018-08-25T15:46:28.880Z,6.20
2018-08-25T15:48:58.069Z,9.27
2018-08-25T15:51:27.788Z,6.53
2018-08-25T15:53:57.749Z,5.97
2018-08-25T15:56:27.404Z,7.72
2018-08-25T15:58:58.349Z,6.05
2018-08-25T16:01:28.053Z,8.53
2018-08-25T16:03:58.159Z,5.77
2018-08-25T16:06:27.743Z,9.90
2018-08-25T16:08:56.990Z,8.38
2018-08-25T16:11:26.673Z,9.25
2018-08-25T16:13:55.921Z,7.65
2018-08-25T16:16:25.545Z,7.72
2018-08-25T16:18:55.493Z,6.80
2018-08-25T16:21:25.133Z,9.13
2018-08-25T16:23:54.673Z,6.63
2018-08-25T16:26:24.357Z,5.57
2018-08-25T16:28:54.581Z,9.30
2018-08-25T16:31:26.069Z,6.47
2018-08-25T16:33:55.294Z,5.30
2018-08-25T16:36:27.179Z,8.45
2018-08-25T16:38:58.189Z,8.13
2018-08-25T16:41:30.272Z,8.65
2018-08-25T16:43:59.530Z,6.77
2018-08-25T16:46:29.200Z,8.23
2018-08-25T16:48:58.507Z,8.60
2018-08-25T16:51:27.734Z,5.45
2018-08-25T16:53:57.053Z,5.10
2018-08-25T16:56:26.660Z,6.30
2018-08-25T16:58:56.045Z,8.03
2018-08-25T17:01:25.664Z,4.90
2018-08-25T17:03:55.141Z,6.90
2018-08-25T17:06:27.386Z,5.65
2018-08-25T17:08:56.732Z,4.35
2018-08-25T17:11:26.333Z,5.42
2018-08-25T17:13:55.624Z,7.17
2018-08-25T17:16:25.256Z,5.22
2018-08-25T17:18:54.513Z,6.33
2018-08-25T17:21:24.193Z,7.50
2018-08-25T17:23:53.423Z,7.55
2018-08-25T17:26:22.972Z,10.73
2018-08-25T17:28:52.140Z,5.10
2018-08-25T17:31:21.969Z,7.65
2018-08-25T17:33:52.913Z,6.10
2018-08-25T17:36:22.563Z,4.47
2018-08-25T17:38:51.849Z,4.70
2018-08-25T17:41:21.400Z,5.37
2018-08-25T17:43:50.704Z,6.33
2018-08-25T17:46:22.031Z,5.35
2018-08-25T17:48:53.819Z,6.27
2018-08-25T17:51:23.432Z,7.47
2018-08-25T17:53:54.395Z,7.30
2018-08-25T17:56:23.993Z,4.70
2018-08-25T17:58:53.170Z,7.47
2018-08-25T18:01:26.337Z,6.37
2018-08-25T18:03:57.412Z,5.90
2018-08-25T18:06:27.362Z,6.97
2018-08-25T18:08:56.605Z,7.27
2018-08-25T18:11:28.136Z,5.73
2018-08-25T18:13:57.312Z,6.00
2018-08-25T18:16:27.157Z,9.73
2018-08-25T18:18:57.048Z,6.28
2018-08-25T18:21:26.682Z,8.53
2018-08-25T18:23:55.978Z,9.47
2018-08-25T18:26:25.457Z,6.40
2018-08-25T18:28:54.670Z,7.53
2018-08-25T18:31:23.900Z,6.90
2018-08-25T18:33:53.179Z,8.85
2018-08-25T18:36:23.717Z,8.60
2018-08-25T18:38:52.945Z,6.30
2018-08-25T18:41:22.604Z,8.75
2018-08-25T18:43:52.697Z,9.30
2018-08-25T18:46:22.364Z,10.55
2018-08-25T18:48:51.915Z,7.83
2018-08-25T18:51:22.310Z,6.80
2018-08-25T18:53:51.601Z,7.08
2018-08-25T18:56:21.227Z,9.40
2018-08-25T18:58:50.574Z,10.23
2018-08-25T19:01:22.421Z,7.33
2018-08-25T19:03:51.926Z,7.62
2018-08-25T19:06:21.544Z,6.03
2018-08-25T19:08:50.982Z,6.37
2018-08-25T19:11:20.636Z,9.73
2018-08-25T19:13:50.216Z,7.83
2018-08-25T19:16:19.933Z,7.70
2018-08-25T19:18:49.184Z,7.37
2018-08-25T19:21:18.516Z,6.77
2018-08-25T19:23:48.217Z,6.77
2018-08-25T19:26:20.459Z,6.77
2018-08-25T19:28:49.780Z,4.80
2018-08-25T19:31:19.714Z,10.10
2018-08-25T19:33:48.920Z,5.20
2018-08-25T19:36:18.169Z,10.43
2018-08-25T19:38:48.911Z,6.60
2018-08-25T19:41:18.383Z,9.33
2018-08-25T19:43:50.562Z,9.17
2018-08-25T19:46:20.234Z,4.67
2018-08-25T19:48:49.392Z,8.20
